Main page
METAR-TAF:

METAR-TAF

Airports :

Honiara International Airport

Honiara, Guadalcanal, Solomon Islands

latitude: 09-25S, longitude: 160-03E, elevation: 8 m

Current weather observation

The report was made 55 minutes ago, at 12:00 UTC
Calm wind
Temperature 26°C
Humidity 94%
Pressure 1011 hPa
Visibility 10 km or more
Few clouds at a height of 1400 ft
Scattered clouds at a height of 10000 ft

METAR: AGGH 221200Z 00000KT 9999 FEW014 SCT100 26/25 Q1011

Time: 23:55 (12:55 UTC)

Forecast

The report was made 1 hour and 35 minutes ago, at 11:20 UTC
Forecast valid from 22 at 12 UTC to 23 at 12 UTC
Wind 3 kt from variable directions
Visibility: 1009 m
Few clouds at a height of 1500 ft

TAF: AGGH 221120Z 2212/2312 VRB03KT 9999 FEW015 T 27 25 24 26 Q 1010 1008 1007 1009

Weather observations and forecasts of more than 4000 airports (METAR and TAF reports).

The available stations are represented by yellow and red dots on the map.

Hover mouse over dot to see the name of the station.

Then click to see weather observations and forecasts.

To change the map : click on the green buttons with a black cross to zoom in, on the green button with a dash to zoom out, or on the green arrows for adjacent maps.


METAR-TAF: